sensor_id;sensor_type;location;lat;lon;timestamp;pressure;altitude;pressure_sealevel;temperature;humidity
44140;BME280;29803;51.048;4.686;2022-08-01T00:00:16;101670.81;;;19.97;100.00
44140;BME280;29803;51.048;4.686;2022-08-01T00:02:46;101683.16;;;19.92;100.00
44140;BME280;29803;51.048;4.686;2022-08-01T00:05:17;101686.50;;;19.88;100.00
44140;BME280;29803;51.048;4.686;2022-08-01T00:07:47;101676.28;;;19.83;100.00
44140;BME280;29803;51.048;4.686;2022-08-01T00:10:19;101676.47;;;19.82;100.00
44140;BME280;29803;51.048;4.686;2022-08-01T00:12:50;101680.00;;;19.76;100.00
44140;BME280;29803;51.048;4.686;2022-08-01T00:15:20;101685.03;;;19.72;100.00
44140;BME280;29803;51.048;4.686;2022-08-01T00:17:51;101681.69;;;19.70;100.00
44140;BME280;29803;51.048;4.686;2022-08-01T00:20:21;101677.69;;;19.66;100.00
44140;BME280;29803;51.048;4.686;2022-08-01T00:22:52;101682.91;;;19.61;100.00
44140;BME280;29803;51.048;4.686;2022-08-01T00:25:22;101679.34;;;19.60;100.00
44140;BME280;29803;51.048;4.686;2022-08-01T00:27:53;101683.72;;;19.55;100.00
44140;BME280;29803;51.048;4.686;2022-08-01T00:30:24;101687.66;;;19.52;100.00
44140;BME280;29803;51.048;4.686;2022-08-01T00:32:54;101681.38;;;19.52;100.00
44140;BME280;29803;51.048;4.686;2022-08-01T00:35:25;101679.09;;;19.49;100.00
44140;BME280;29803;51.048;4.686;2022-08-01T00:37:55;101680.75;;;19.50;100.00
44140;BME280;29803;51.048;4.686;2022-08-01T00:40:26;101684.94;;;19.52;100.00
44140;BME280;29803;51.048;4.686;2022-08-01T00:42:56;101681.81;;;19.49;100.00
44140;BME280;29803;51.048;4.686;2022-08-01T00:45:27;101687.88;;;19.51;100.00
44140;BME280;29803;51.048;4.686;2022-08-01T00:47:57;101679.50;;;19.46;100.00
44140;BME280;29803;51.048;4.686;2022-08-01T00:50:28;101684.31;;;19.44;100.00
44140;BME280;29803;51.048;4.686;2022-08-01T00:52:59;101674.25;;;19.44;100.00
44140;BME280;29803;51.048;4.686;2022-08-01T00:55:31;101681.59;;;19.44;100.00
44140;BME280;29803;51.048;4.686;2022-08-01T00:58:02;101680.53;;;19.45;100.00
44140;BME280;29803;51.048;4.686;2022-08-01T01:00:34;101683.03;;;19.46;100.00
44140;BME280;29803;51.048;4.686;2022-08-01T01:03:05;101678.88;;;19.50;100.00
44140;BME280;29803;51.048;4.686;2022-08-01T01:05:47;101680.34;;;19.53;100.00
44140;BME280;29803;51.048;4.686;2022-08-01T01:08:24;101676.59;;;19.54;100.00
44140;BME280;29803;51.048;4.686;2022-08-01T01:11:04;101677.44;;;19.54;100.00
44140;BME280;29803;51.048;4.686;2022-08-01T01:16:47;101677.81;;;19.45;100.00
44140;BME280;29803;51.048;4.686;2022-08-01T01:19:22;101676.53;;;19.40;100.00
44140;BME280;29803;51.048;4.686;2022-08-01T01:22:08;101681.53;;;19.37;100.00
44140;BME280;29803;51.048;4.686;2022-08-01T01:25:02;101689.53;;;19.38;100.00
44140;BME280;29803;51.048;4.686;2022-08-01T01:27:47;101687.44;;;19.40;100.00
44140;BME280;29803;51.048;4.686;2022-08-01T01:30:21;101670.69;;;19.44;100.00
44140;BME280;29803;51.048;4.686;2022-08-01T01:32:54;101670.69;;;19.44;100.00
44140;BME280;29803;51.048;4.686;2022-08-01T01:35:32;101675.09;;;19.45;100.00
44140;BME280;29803;51.048;4.686;2022-08-01T01:38:08;101671.31;;;19.46;100.00
44140;BME280;29803;51.048;4.686;2022-08-01T01:40:41;101679.28;;;19.47;100.00
44140;BME280;29803;51.048;4.686;2022-08-01T01:43:14;101674.47;;;19.49;100.00
44140;BME280;29803;51.048;4.686;2022-08-01T01:45:46;101674.28;;;19.51;100.00
44140;BME280;29803;51.048;4.686;2022-08-01T01:48:19;101671.34;;;19.52;100.00
44140;BME280;29803;51.048;4.686;2022-08-01T01:50:52;101673.88;;;19.54;100.00
44140;BME280;29803;51.048;4.686;2022-08-01T01:53:23;101672.38;;;19.51;100.00
44140;BME280;29803;51.048;4.686;2022-08-01T01:56:00;101675.31;;;19.50;100.00
44140;BME280;29803;51.048;4.686;2022-08-01T01:58:33;101684.09;;;19.52;100.00
44140;BME280;29803;51.048;4.686;2022-08-01T02:01:06;101678.66;;;19.52;100.00
44140;BME280;29803;51.048;4.686;2022-08-01T02:03:38;101674.06;;;19.52;100.00
44140;BME280;29803;51.048;4.686;2022-08-01T02:06:22;101667.16;;;19.50;100.00
44140;BME280;29803;51.048;4.686;2022-08-01T02:08:54;101675.09;;;19.51;100.00
44140;BME280;29803;51.048;4.686;2022-08-01T02:11:25;101668.00;;;19.57;100.00
44140;BME280;29803;51.048;4.686;2022-08-01T02:14:01;101661.94;;;19.55;100.00
44140;BME280;29803;51.048;4.686;2022-08-01T02:16:35;101664.00;;;19.53;100.00
44140;BME280;29803;51.048;4.686;2022-08-01T02:19:06;101671.34;;;19.52;100.00
44140;BME280;29803;51.048;4.686;2022-08-01T02:21:40;101672.38;;;19.51;100.00
44140;BME280;29803;51.048;4.686;2022-08-01T02:24:18;101665.72;;;19.54;100.00
44140;BME280;29803;51.048;4.686;2022-08-01T02:26:52;101664.22;;;19.51;100.00
44140;BME280;29803;51.048;4.686;2022-08-01T02:29:29;101669.03;;;19.49;100.00
44140;BME280;29803;51.048;4.686;2022-08-01T02:32:04;101664.00;;;19.46;100.00
44140;BME280;29803;51.048;4.686;2022-08-01T02:34:35;101669.25;;;19.54;100.00
44140;BME280;29803;51.048;4.686;2022-08-01T02:37:06;101671.56;;;19.51;100.00
44140;BME280;29803;51.048;4.686;2022-08-01T02:39:37;101665.03;;;19.45;100.00
44140;BME280;29803;51.048;4.686;2022-08-01T02:42:11;101674.66;;;19.48;100.00
44140;BME280;29803;51.048;4.686;2022-08-01T02:44:44;101670.50;;;19.45;100.00
44140;BME280;29803;51.048;4.686;2022-08-01T02:47:19;101676.38;;;19.49;100.00
44140;BME280;29803;51.048;4.686;2022-08-01T02:49:51;101664.00;;;19.53;100.00
44140;BME280;29803;51.048;4.686;2022-08-01T02:52:23;101664.88;;;19.53;100.00
44140;BME280;29803;51.048;4.686;2022-08-01T02:54:56;101663.84;;;19.61;100.00
44140;BME280;29803;51.048;4.686;2022-08-01T02:57:28;101670.31;;;19.53;100.00
44140;BME280;29803;51.048;4.686;2022-08-01T03:00:00;101676.16;;;19.50;100.00
44140;BME280;29803;51.048;4.686;2022-08-01T03:02:32;101680.31;;;19.46;100.00
44140;BME280;29803;51.048;4.686;2022-08-01T03:05:05;101677.16;;;19.42;100.00
44140;BME280;29803;51.048;4.686;2022-08-01T03:07:36;101680.31;;;19.39;100.00
44140;BME280;29803;51.048;4.686;2022-08-01T03:10:08;101679.66;;;19.37;100.00
44140;BME280;29803;51.048;4.686;2022-08-01T03:12:40;101674.00;;;19.32;100.00
44140;BME280;29803;51.048;4.686;2022-08-01T03:15:11;101681.31;;;19.25;100.00
44140;BME280;29803;51.048;4.686;2022-08-01T03:17:45;101674.19;;;19.24;100.00
44140;BME280;29803;51.048;4.686;2022-08-01T03:20:18;101686.91;;;19.17;100.00
44140;BME280;29803;51.048;4.686;2022-08-01T03:22:52;101681.88;;;19.14;100.00
44140;BME280;29803;51.048;4.686;2022-08-01T03:25:24;101684.38;;;19.09;100.00
44140;BME280;29803;51.048;4.686;2022-08-01T03:27:58;101687.69;;;18.98;100.00
44140;BME280;29803;51.048;4.686;2022-08-01T03:30:30;101687.44;;;18.93;100.00
44140;BME280;29803;51.048;4.686;2022-08-01T03:33:02;101685.50;;;18.86;100.00
44140;BME280;29803;51.048;4.686;2022-08-01T03:35:35;101689.28;;;18.85;100.00
44140;BME280;29803;51.048;4.686;2022-08-01T03:38:08;101693.41;;;18.81;100.00
44140;BME280;29803;51.048;4.686;2022-08-01T03:40:45;101686.53;;;18.79;100.00
44140;BME280;29803;51.048;4.686;2022-08-01T03:43:16;101686.06;;;18.75;100.00
44140;BME280;29803;51.048;4.686;2022-08-01T03:45:50;101696.94;;;18.75;100.00
44140;BME280;29803;51.048;4.686;2022-08-01T03:48:28;101694.84;;;18.77;100.00
44140;BME280;29803;51.048;4.686;2022-08-01T03:50:59;101698.19;;;18.73;100.00
44140;BME280;29803;51.048;4.686;2022-08-01T03:53:31;101693.16;;;18.70;100.00
44140;BME280;29803;51.048;4.686;2022-08-01T03:56:04;101703.19;;;18.69;100.00
44140;BME280;29803;51.048;4.686;2022-08-01T03:58:38;101697.75;;;18.69;100.00
44140;BME280;29803;51.048;4.686;2022-08-01T04:01:10;101700.25;;;18.71;100.00
44140;BME280;29803;51.048;4.686;2022-08-01T04:03:41;101691.06;;;18.72;100.00
44140;BME280;29803;51.048;4.686;2022-08-01T04:06:12;101694.63;;;18.72;100.00
44140;BME280;29803;51.048;4.686;2022-08-01T04:08:44;101693.97;;;18.70;100.00
44140;BME280;29803;51.048;4.686;2022-08-01T04:11:26;101691.28;;;18.70;100.00
44140;BME280;29803;51.048;4.686;2022-08-01T04:13:57;101690.22;;;18.71;100.00
44140;BME280;29803;51.048;4.686;2022-08-01T04:16:28;101696.69;;;18.70;100.00
44140;BME280;29803;51.048;4.686;2022-08-01T04:18:58;101697.34;;;18.72;100.00
44140;BME280;29803;51.048;4.686;2022-08-01T04:21:32;101700.72;;;18.74;100.00
44140;BME280;29803;51.048;4.686;2022-08-01T04:24:13;101702.19;;;18.77;100.00
44140;BME280;29803;51.048;4.686;2022-08-01T04:26:47;101702.38;;;18.75;100.00
44140;BME280;29803;51.048;4.686;2022-08-01T04:29:19;101713.25;;;18.75;100.00
44140;BME280;29803;51.048;4.686;2022-08-01T04:31:53;101715.13;;;18.75;100.00
44140;BME280;29803;51.048;4.686;2022-08-01T04:34:25;101711.59;;;18.74;100.00
44140;BME280;29803;51.048;4.686;2022-08-01T04:37:00;101716.81;;;18.76;100.00
44140;BME280;29803;51.048;4.686;2022-08-01T04:39:31;101721.41;;;18.75;100.00
44140;BME280;29803;51.048;4.686;2022-08-01T04:42:04;101720.56;;;18.75;100.00
44140;BME280;29803;51.048;4.686;2022-08-01T04:44:36;101710.53;;;18.75;100.00
44140;BME280;29803;51.048;4.686;2022-08-01T04:47:08;101716.59;;;18.77;100.00
44140;BME280;29803;51.048;4.686;2022-08-01T04:49:40;101720.59;;;18.81;100.00
44140;BME280;29803;51.048;4.686;2022-08-01T04:52:11;101729.41;;;18.83;100.00
44140;BME280;29803;51.048;4.686;2022-08-01T04:54:42;101728.16;;;18.86;100.00
44140;BME280;29803;51.048;4.686;2022-08-01T04:57:12;101725.25;;;18.87;100.00
44140;BME280;29803;51.048;4.686;2022-08-01T04:59:43;101729.66;;;18.88;100.00
44140;BME280;29803;51.048;4.686;2022-08-01T05:02:17;101728.22;;;18.93;100.00
44140;BME280;29803;51.048;4.686;2022-08-01T05:04:48;101730.06;;;18.92;100.00
44140;BME280;29803;51.048;4.686;2022-08-01T05:07:19;101735.50;;;18.92;100.00
44140;BME280;29803;51.048;4.686;2022-08-01T05:09:49;101728.66;;;18.96;100.00
44140;BME280;29803;51.048;4.686;2022-08-01T05:12:20;101730.13;;;18.99;100.00
44140;BME280;29803;51.048;4.686;2022-08-01T05:14:51;101737.88;;;19.02;100.00
44140;BME280;29803;51.048;4.686;2022-08-01T05:17:21;101730.38;;;19.04;100.00
44140;BME280;29803;51.048;4.686;2022-08-01T05:19:52;101736.06;;;19.09;100.00
44140;BME280;29803;51.048;4.686;2022-08-01T05:22:22;101732.72;;;19.13;100.00
44140;BME280;29803;51.048;4.686;2022-08-01T05:24:54;101732.75;;;19.20;100.00
44140;BME280;29803;51.048;4.686;2022-08-01T05:27:25;101738.44;;;19.25;100.00
44140;BME280;29803;51.048;4.686;2022-08-01T05:29:56;101740.09;;;19.26;100.00
44140;BME280;29803;51.048;4.686;2022-08-01T05:32:27;101742.19;;;19.24;100.00
44140;BME280;29803;51.048;4.686;2022-08-01T05:34:59;101747.63;;;19.24;100.00
44140;BME280;29803;51.048;4.686;2022-08-01T05:37:30;101742.59;;;19.21;100.00
44140;BME280;29803;51.048;4.686;2022-08-01T05:40:00;101739.66;;;19.23;100.00
44140;BME280;29803;51.048;4.686;2022-08-01T05:42:31;101739.72;;;19.29;100.00
44140;BME280;29803;51.048;4.686;2022-08-01T05:45:02;101735.56;;;19.40;100.00
44140;BME280;29803;51.048;4.686;2022-08-01T05:47:32;101739.53;;;19.37;100.00
44140;BME280;29803;51.048;4.686;2022-08-01T05:50:03;101739.72;;;19.36;100.00
44140;BME280;29803;51.048;4.686;2022-08-01T05:52:34;101749.78;;;19.35;100.00
44140;BME280;29803;51.048;4.686;2022-08-01T05:55:05;101741.84;;;19.40;100.00
44140;BME280;29803;51.048;4.686;2022-08-01T05:57:35;101735.34;;;19.41;100.00
44140;BME280;29803;51.048;4.686;2022-08-01T06:00:06;101744.19;;;19.50;100.00
44140;BME280;29803;51.048;4.686;2022-08-01T06:02:40;101747.97;;;19.56;100.00
44140;BME280;29803;51.048;4.686;2022-08-01T06:05:11;101747.63;;;19.65;100.00
44140;BME280;29803;51.048;4.686;2022-08-01T06:07:42;101745.13;;;19.71;100.00
44140;BME280;29803;51.048;4.686;2022-08-01T06:10:13;101748.69;;;19.78;100.00
44140;BME280;29803;51.048;4.686;2022-08-01T06:12:43;101748.31;;;19.87;100.00
44140;BME280;29803;51.048;4.686;2022-08-01T06:15:14;101748.53;;;19.86;100.00
44140;BME280;29803;51.048;4.686;2022-08-01T06:17:44;101746.41;;;19.88;100.00
44140;BME280;29803;51.048;4.686;2022-08-01T06:20:15;101746.25;;;19.96;100.00
44140;BME280;29803;51.048;4.686;2022-08-01T06:22:45;101752.94;;;20.00;100.00
44140;BME280;29803;51.048;4.686;2022-08-01T06:25:15;101746.88;;;20.11;100.00
44140;BME280;29803;51.048;4.686;2022-08-01T06:27:46;101749.41;;;20.26;100.00
44140;BME280;29803;51.048;4.686;2022-08-01T06:30:17;101746.91;;;20.31;100.00
44140;BME280;29803;51.048;4.686;2022-08-01T06:32:47;101754.69;;;20.48;100.00
44140;BME280;29803;51.048;4.686;2022-08-01T06:35:18;101750.94;;;20.49;100.00
44140;BME280;29803;51.048;4.686;2022-08-01T06:37:48;101753.44;;;20.50;100.00
44140;BME280;29803;51.048;4.686;2022-08-01T06:40:19;101746.94;;;20.51;100.00
44140;BME280;29803;51.048;4.686;2022-08-01T06:42:50;101753.44;;;20.70;100.00
44140;BME280;29803;51.048;4.686;2022-08-01T06:45:20;101755.09;;;20.84;100.00
44140;BME280;29803;51.048;4.686;2022-08-01T06:48:07;101750.63;;;21.03;100.00
44140;BME280;29803;51.048;4.686;2022-08-01T06:50:37;101748.50;;;21.32;100.00
44140;BME280;29803;51.048;4.686;2022-08-01T06:53:08;101750.63;;;21.68;100.00
44140;BME280;29803;51.048;4.686;2022-08-01T06:55:38;101760.81;;;22.74;100.00
44140;BME280;29803;51.048;4.686;2022-08-01T06:58:09;101747.59;;;23.33;100.00
44140;BME280;29803;51.048;4.686;2022-08-01T07:00:39;101750.03;;;23.89;100.00
44140;BME280;29803;51.048;4.686;2022-08-01T07:03:10;101757.50;;;24.66;100.00
44140;BME280;29803;51.048;4.686;2022-08-01T07:05:40;101763.81;;;24.54;100.00
44140;BME280;29803;51.048;4.686;2022-08-01T07:08:11;101773.22;;;23.57;100.00
44140;BME280;29803;51.048;4.686;2022-08-01T07:10:41;101769.81;;;22.81;100.00
44140;BME280;29803;51.048;4.686;2022-08-01T07:13:13;101769.81;;;22.31;100.00
44140;BME280;29803;51.048;4.686;2022-08-01T07:15:45;101769.41;;;21.96;100.00
44140;BME280;29803;51.048;4.686;2022-08-01T07:18:15;101771.13;;;21.90;100.00
44140;BME280;29803;51.048;4.686;2022-08-01T07:20:46;101774.28;;;21.87;100.00
44140;BME280;29803;51.048;4.686;2022-08-01T07:23:16;101769.09;;;21.72;100.00
44140;BME280;29803;51.048;4.686;2022-08-01T07:25:47;101765.91;;;21.82;100.00
44140;BME280;29803;51.048;4.686;2022-08-01T07:28:19;101774.28;;;21.87;100.00
44140;BME280;29803;51.048;4.686;2022-08-01T07:30:49;101766.13;;;21.81;100.00
44140;BME280;29803;51.048;4.686;2022-08-01T07:33:20;101763.63;;;21.79;100.00
44140;BME280;29803;51.048;4.686;2022-08-01T07:35:50;101768.63;;;21.82;100.00
44140;BME280;29803;51.048;4.686;2022-08-01T07:38:21;101772.69;;;22.11;100.00
44140;BME280;29803;51.048;4.686;2022-08-01T07:40:51;101772.97;;;22.35;100.00
44140;BME280;29803;51.048;4.686;2022-08-01T07:43:22;101777.38;;;22.61;100.00
44140;BME280;29803;51.048;4.686;2022-08-01T07:45:52;101777.63;;;22.78;100.00
44140;BME280;29803;51.048;4.686;2022-08-01T07:48:23;101780.28;;;22.91;100.00
44140;BME280;29803;51.048;4.686;2022-08-01T07:50:55;101782.66;;;22.81;100.00
44140;BME280;29803;51.048;4.686;2022-08-01T07:53:25;101787.84;;;22.64;100.00
44140;BME280;29803;51.048;4.686;2022-08-01T07:55:56;101780.66;;;22.69;100.00
44140;BME280;29803;51.048;4.686;2022-08-01T07:58:27;101791.78;;;22.99;100.00
44140;BME280;29803;51.048;4.686;2022-08-01T08:00:57;101785.69;;;22.97;100.00
44140;BME280;29803;51.048;4.686;2022-08-01T08:03:28;101795.66;;;22.85;100.00
44140;BME280;29803;51.048;4.686;2022-08-01T08:05:58;101794.59;;;22.86;100.00
44140;BME280;29803;51.048;4.686;2022-08-01T08:08:29;101796.34;;;22.81;100.00
44140;BME280;29803;51.048;4.686;2022-08-01T08:11:00;101799.09;;;23.06;100.00
44140;BME280;29803;51.048;4.686;2022-08-01T08:13:31;101786.81;;;24.00;100.00
44140;BME280;29803;51.048;4.686;2022-08-01T08:16:01;101786.22;;;25.45;100.00
44140;BME280;29803;51.048;4.686;2022-08-01T08:18:32;101789.03;;;26.81;100.00
44140;BME280;29803;51.048;4.686;2022-08-01T08:21:03;101796.09;;;27.11;100.00
44140;BME280;29803;51.048;4.686;2022-08-01T08:23:33;101793.44;;;26.49;100.00
44140;BME280;29803;51.048;4.686;2022-08-01T08:26:22;101799.78;;;26.49;100.00
44140;BME280;29803;51.048;4.686;2022-08-01T08:28:53;101800.13;;;26.24;100.00
44140;BME280;29803;51.048;4.686;2022-08-01T08:31:24;101799.75;;;25.75;100.00
44140;BME280;29803;51.048;4.686;2022-08-01T08:33:55;101801.38;;;25.48;100.00
44140;BME280;29803;51.048;4.686;2022-08-01T08:36:25;101792.47;;;25.05;100.00
44140;BME280;29803;51.048;4.686;2022-08-01T08:38:56;101788.50;;;24.54;100.00
44140;BME280;29803;51.048;4.686;2022-08-01T08:41:26;101792.31;;;24.12;100.00
44140;BME280;29803;51.048;4.686;2022-08-01T08:43:57;101799.19;;;24.02;100.00
44140;BME280;29803;51.048;4.686;2022-08-01T08:46:30;101798.09;;;23.73;100.00
44140;BME280;29803;51.048;4.686;2022-08-01T08:49:03;101800.34;;;23.65;100.00
44140;BME280;29803;51.048;4.686;2022-08-01T08:51:35;101800.25;;;23.71;100.00
44140;BME280;29803;51.048;4.686;2022-08-01T08:54:11;101811.75;;;24.40;100.00
44140;BME280;29803;51.048;4.686;2022-08-01T08:56:43;101812.03;;;24.97;100.00
44140;BME280;29803;51.048;4.686;2022-08-01T08:59:14;101806.72;;;25.54;100.00
44140;BME280;29803;51.048;4.686;2022-08-01T09:01:45;101818.25;;;25.28;100.00
44140;BME280;29803;51.048;4.686;2022-08-01T09:04:16;101817.28;;;25.46;100.00
44140;BME280;29803;51.048;4.686;2022-08-01T09:06:46;101810.97;;;25.22;100.00
44140;BME280;29803;51.048;4.686;2022-08-01T09:09:17;101804.06;;;25.08;100.00
44140;BME280;29803;51.048;4.686;2022-08-01T09:11:48;101818.56;;;24.73;100.00
44140;BME280;29803;51.048;4.686;2022-08-01T09:14:19;101812.84;;;24.74;100.00
44140;BME280;29803;51.048;4.686;2022-08-01T09:17:07;101809.34;;;25.61;100.00
44140;BME280;29803;51.048;4.686;2022-08-01T09:19:42;101815.19;;;26.05;100.00
44140;BME280;29803;51.048;4.686;2022-08-01T09:22:16;101806.28;;;26.43;100.00
44140;BME280;29803;51.048;4.686;2022-08-01T09:25:04;101804.91;;;26.29;100.00
44140;BME280;29803;51.048;4.686;2022-08-01T09:27:37;101816.47;;;25.86;100.00
44140;BME280;29803;51.048;4.686;2022-08-01T09:30:11;101811.91;;;26.37;100.00
44140;BME280;29803;51.048;4.686;2022-08-01T09:35:40;101818.03;;;27.45;100.00
44140;BME280;29803;51.048;4.686;2022-08-01T09:38:31;101823.94;;;27.75;93.67
44140;BME280;29803;51.048;4.686;2022-08-01T09:41:02;101822.94;;;27.04;96.01
44140;BME280;29803;51.048;4.686;2022-08-01T09:43:32;101826.53;;;26.54;100.00
44140;BME280;29803;51.048;4.686;2022-08-01T09:46:06;101820.91;;;26.32;100.00
44140;BME280;29803;51.048;4.686;2022-08-01T09:48:38;101818.88;;;26.73;100.00
44140;BME280;29803;51.048;4.686;2022-08-01T09:51:10;101824.34;;;27.23;100.00
44140;BME280;29803;51.048;4.686;2022-08-01T09:53:44;101824.38;;;27.89;100.00
44140;BME280;29803;51.048;4.686;2022-08-01T09:56:15;101824.28;;;28.33;95.12
44140;BME280;29803;51.048;4.686;2022-08-01T09:59:05;101827.03;;;28.60;88.65
44140;BME280;29803;51.048;4.686;2022-08-01T10:01:53;101830.94;;;27.83;88.67
44140;BME280;29803;51.048;4.686;2022-08-01T10:04:23;101822.63;;;27.39;91.27
44140;BME280;29803;51.048;4.686;2022-08-01T10:07:05;101820.47;;;27.63;98.21
44140;BME280;29803;51.048;4.686;2022-08-01T10:09:36;101827.69;;;28.13;93.80
44140;BME280;29803;51.048;4.686;2022-08-01T10:12:08;101812.88;;;28.51;96.52
44140;BME280;29803;51.048;4.686;2022-08-01T10:14:40;101833.25;;;29.09;87.95
44140;BME280;29803;51.048;4.686;2022-08-01T10:17:14;101825.78;;;29.10;84.06
44140;BME280;29803;51.048;4.686;2022-08-01T10:19:46;101823.47;;;29.44;79.86
44140;BME280;29803;51.048;4.686;2022-08-01T10:22:23;101829.00;;;29.44;76.50
44140;BME280;29803;51.048;4.686;2022-08-01T10:24:55;101824.47;;;29.18;77.20
44140;BME280;29803;51.048;4.686;2022-08-01T10:27:29;101825.41;;;28.96;78.00
44140;BME280;29803;51.048;4.686;2022-08-01T10:30:04;101831.63;;;29.19;76.55
44140;BME280;29803;51.048;4.686;2022-08-01T10:32:35;101819.19;;;28.42;80.03
44140;BME280;29803;51.048;4.686;2022-08-01T10:35:06;101826.69;;;27.53;89.56
44140;BME280;29803;51.048;4.686;2022-08-01T10:37:37;101821.47;;;27.35;89.81
44140;BME280;29803;51.048;4.686;2022-08-01T10:40:09;101810.78;;;26.83;96.28
44140;BME280;29803;51.048;4.686;2022-08-01T10:42:43;101812.38;;;26.62;100.00
44140;BME280;29803;51.048;4.686;2022-08-01T10:45:15;101820.13;;;26.65;97.85
44140;BME280;29803;51.048;4.686;2022-08-01T10:53:28;101807.38;;;26.42;91.49
44140;BME280;29803;51.048;4.686;2022-08-01T10:56:01;101806.53;;;26.58;90.74
44140;BME280;29803;51.048;4.686;2022-08-01T10:58:35;101805.25;;;27.00;90.64
44140;BME280;29803;51.048;4.686;2022-08-01T11:01:27;101802.59;;;27.22;85.32
44140;BME280;29803;51.048;4.686;2022-08-01T11:06:49;101804.09;;;26.79;88.10
44140;BME280;29803;51.048;4.686;2022-08-01T11:09:27;101812.38;;;26.79;89.38
44140;BME280;29803;51.048;4.686;2022-08-01T11:14:28;101806.25;;;27.10;89.56
44140;BME280;29803;51.048;4.686;2022-08-01T11:28:30;101813.34;;;27.89;78.87
44140;BME280;29803;51.048;4.686;2022-08-01T11:38:46;101808.47;;;27.30;78.72
44140;BME280;29803;51.048;4.686;2022-08-01T11:49:57;101800.72;;;27.49;80.25
44140;BME280;29803;51.048;4.686;2022-08-01T11:52:30;101794.94;;;27.51;80.16
44140;BME280;29803;51.048;4.686;2022-08-01T11:57:34;101800.59;;;27.61;78.99
44140;BME280;29803;51.048;4.686;2022-08-01T12:00:23;101808.66;;;27.46;76.82
44140;BME280;29803;51.048;4.686;2022-08-01T12:03:12;101804.13;;;27.56;79.48
44140;BME280;29803;51.048;4.686;2022-08-01T12:05:44;101797.31;;;27.86;77.53
44140;BME280;29803;51.048;4.686;2022-08-01T12:08:24;101805.91;;;27.68;70.86
44140;BME280;29803;51.048;4.686;2022-08-01T12:10:55;101804.75;;;27.63;69.50
44140;BME280;29803;51.048;4.686;2022-08-01T12:13:26;101802.56;;;27.66;74.70
44140;BME280;29803;51.048;4.686;2022-08-01T12:16:06;101812.13;;;28.02;68.72
44140;BME280;29803;51.048;4.686;2022-08-01T12:18:40;101806.84;;;27.73;65.89
44140;BME280;29803;51.048;4.686;2022-08-01T12:21:10;101809.66;;;27.78;66.82
44140;BME280;29803;51.048;4.686;2022-08-01T12:23:41;101802.84;;;27.86;69.51
44140;BME280;29803;51.048;4.686;2022-08-01T12:26:11;101804.66;;;27.75;66.64
44140;BME280;29803;51.048;4.686;2022-08-01T12:28:42;101810.09;;;27.09;66.91
44140;BME280;29803;51.048;4.686;2022-08-01T12:31:13;101805.19;;;27.12;72.03
44140;BME280;29803;51.048;4.686;2022-08-01T12:33:43;101802.44;;;27.33;70.21
44140;BME280;29803;51.048;4.686;2022-08-01T12:36:27;101807.25;;;27.43;71.93
44140;BME280;29803;51.048;4.686;2022-08-01T12:38:57;101804.25;;;27.45;76.11
44140;BME280;29803;51.048;4.686;2022-08-01T12:41:31;101803.34;;;27.61;71.82
44140;BME280;29803;51.048;4.686;2022-08-01T12:44:02;101797.81;;;27.78;68.80
44140;BME280;29803;51.048;4.686;2022-08-01T12:46:33;101795.72;;;27.68;72.76
44140;BME280;29803;51.048;4.686;2022-08-01T12:49:03;101802.44;;;27.55;69.35
44140;BME280;29803;51.048;4.686;2022-08-01T12:51:34;101799.75;;;27.60;70.99
44140;BME280;29803;51.048;4.686;2022-08-01T12:54:05;101795.88;;;27.78;69.55
44140;BME280;29803;51.048;4.686;2022-08-01T12:56:40;101796.53;;;27.91;68.68
44140;BME280;29803;51.048;4.686;2022-08-01T12:59:27;101788.53;;;27.89;69.22
44140;BME280;29803;51.048;4.686;2022-08-01T13:02:08;101796.81;;;27.89;68.80
44140;BME280;29803;51.048;4.686;2022-08-01T13:04:50;101792.50;;;27.98;68.69
44140;BME280;29803;51.048;4.686;2022-08-01T13:07:21;101789.22;;;28.01;65.53
44140;BME280;29803;51.048;4.686;2022-08-01T13:09:52;101793.94;;;28.06;65.44
44140;BME280;29803;51.048;4.686;2022-08-01T13:12:22;101793.94;;;28.06;62.07
44140;BME280;29803;51.048;4.686;2022-08-01T13:14:53;101798.63;;;28.05;61.59
44140;BME280;29803;51.048;4.686;2022-08-01T13:17:34;101795.97;;;28.16;64.20
44140;BME280;29803;51.048;4.686;2022-08-01T13:20:08;101798.25;;;28.51;61.45
44140;BME280;29803;51.048;4.686;2022-08-01T13:22:39;101797.34;;;28.40;62.26
44140;BME280;29803;51.048;4.686;2022-08-01T13:25:12;101788.88;;;28.47;63.01
44140;BME280;29803;51.048;4.686;2022-08-01T13:27:43;101790.50;;;28.85;59.60
44140;BME280;29803;51.048;4.686;2022-08-01T13:30:16;101794.03;;;29.12;58.67
44140;BME280;29803;51.048;4.686;2022-08-01T13:32:58;101789.53;;;29.01;58.46
44140;BME280;29803;51.048;4.686;2022-08-01T13:35:29;101786.69;;;28.91;59.35
44140;BME280;29803;51.048;4.686;2022-08-01T13:37:59;101794.97;;;28.91;59.56
44140;BME280;29803;51.048;4.686;2022-08-01T13:40:30;101787.13;;;28.73;59.42
44140;BME280;29803;51.048;4.686;2022-08-01T13:43:01;101784.38;;;28.73;56.04
44140;BME280;29803;51.048;4.686;2022-08-01T13:45:31;101791.03;;;28.77;54.79
44140;BME280;29803;51.048;4.686;2022-08-01T13:48:02;101794.25;;;28.69;56.51
44140;BME280;29803;51.048;4.686;2022-08-01T13:50:32;101785.91;;;28.58;55.38
44140;BME280;29803;51.048;4.686;2022-08-01T13:53:03;101793.28;;;28.48;55.81
44140;BME280;29803;51.048;4.686;2022-08-01T13:55:33;101789.81;;;28.62;54.42
44140;BME280;29803;51.048;4.686;2022-08-01T13:58:04;101792.28;;;28.64;55.30